sensor_id;sensor_type;location;lat;lon;timestamp;pressure;altitude;pressure_sealevel;temperature;humidity
50852;BME280;43953;45.508;-122.806;2023-04-09T00:00:22;100941.22;;;15.47;47.23
50852;BME280;43953;45.508;-122.806;2023-04-09T00:01:01;100936.81;;;15.46;47.15
50852;BME280;43953;45.508;-122.806;2023-04-09T00:01:33;100936.81;;;15.46;47.31
50852;BME280;43953;45.508;-122.806;2023-04-09T00:02:06;100941.44;;;15.46;47.33
50852;BME280;43953;45.508;-122.806;2023-04-09T00:02:39;100932.47;;;15.45;47.38
50852;BME280;43953;45.508;-122.806;2023-04-09T00:03:11;100933.28;;;15.46;47.39
50852;BME280;43953;45.508;-122.806;2023-04-09T00:03:43;100933.28;;;15.46;47.46
50852;BME280;43953;45.508;-122.806;2023-04-09T00:04:14;100935.19;;;15.45;47.43
50852;BME280;43953;45.508;-122.806;2023-04-09T00:04:46;100936.00;;;15.46;47.57
50852;BME280;43953;45.508;-122.806;2023-04-09T00:05:17;100933.28;;;15.46;47.48
50852;BME280;43953;45.508;-122.806;2023-04-09T00:05:49;100943.31;;;15.45;47.51
50852;BME280;43953;45.508;-122.806;2023-04-09T00:06:21;100940.63;;;15.45;47.67
50852;BME280;43953;45.508;-122.806;2023-04-09T00:06:53;100939.78;;;15.45;47.78
50852;BME280;43953;45.508;-122.806;2023-04-09T00:07:25;100935.19;;;15.45;47.81
50852;BME280;43953;45.508;-122.806;2023-04-09T00:07:56;100939.78;;;15.45;48.00
50852;BME280;43953;45.508;-122.806;2023-04-09T00:08:28;100942.50;;;15.45;48.14
50852;BME280;43953;45.508;-122.806;2023-04-09T00:09:00;100938.72;;;15.46;48.07
50852;BME280;43953;45.508;-122.806;2023-04-09T00:09:32;100936.00;;;15.46;48.13
50852;BME280;43953;45.508;-122.806;2023-04-09T00:10:04;100932.47;;;15.45;48.19
50852;BME280;43953;45.508;-122.806;2023-04-09T00:10:36;100934.38;;;15.45;48.44
50852;BME280;43953;45.508;-122.806;2023-04-09T00:11:08;100939.53;;;15.46;48.49
50852;BME280;43953;45.508;-122.806;2023-04-09T00:11:40;100934.38;;;15.45;48.54
50852;BME280;43953;45.508;-122.806;2023-04-09T00:12:12;100936.25;;;15.44;48.72
50852;BME280;43953;45.508;-122.806;2023-04-09T00:12:43;100938.16;;;15.44;48.80
50852;BME280;43953;45.508;-122.806;2023-04-09T00:13:15;100934.59;;;15.43;48.87
50852;BME280;43953;45.508;-122.806;2023-04-09T00:13:48;100936.47;;;15.43;48.77
50852;BME280;43953;45.508;-122.806;2023-04-09T00:14:20;100938.38;;;15.42;48.97
50852;BME280;43953;45.508;-122.806;2023-04-09T00:14:51;100938.38;;;15.42;48.54
50852;BME280;43953;45.508;-122.806;2023-04-09T00:15:23;100935.66;;;15.42;49.03
50852;BME280;43953;45.508;-122.806;2023-04-09T00:15:55;100939.19;;;15.43;48.94
50852;BME280;43953;45.508;-122.806;2023-04-09T00:16:26;100935.66;;;15.42;48.91
50852;BME280;43953;45.508;-122.806;2023-04-09T00:16:58;100935.66;;;15.42;48.90
50852;BME280;43953;45.508;-122.806;2023-04-09T00:17:30;100929.63;;;15.40;48.92
50852;BME280;43953;45.508;-122.806;2023-04-09T00:18:02;100930.22;;;15.42;49.26
50852;BME280;43953;45.508;-122.806;2023-04-09T00:18:33;100925.88;;;15.41;49.13
50852;BME280;43953;45.508;-122.806;2023-04-09T00:19:05;100928.59;;;15.41;49.30
50852;BME280;43953;45.508;-122.806;2023-04-09T00:19:37;100932.34;;;15.40;49.42
50852;BME280;43953;45.508;-122.806;2023-04-09T00:20:09;100924.22;;;15.40;49.50
50852;BME280;43953;45.508;-122.806;2023-04-09T00:20:42;100921.50;;;15.40;49.54
50852;BME280;43953;45.508;-122.806;2023-04-09T00:21:14;100925.88;;;15.41;49.51
50852;BME280;43953;45.508;-122.806;2023-04-09T00:21:46;100918.78;;;15.40;49.93
50852;BME280;43953;45.508;-122.806;2023-04-09T00:22:18;100923.63;;;15.38;49.94
50852;BME280;43953;45.508;-122.806;2023-04-09T00:22:50;100920.91;;;15.38;50.11
50852;BME280;43953;45.508;-122.806;2023-04-09T00:23:22;100923.63;;;15.38;50.11
50852;BME280;43953;45.508;-122.806;2023-04-09T00:23:54;100926.34;;;15.38;50.46
50852;BME280;43953;45.508;-122.806;2023-04-09T00:24:25;100920.31;;;15.36;50.31
50852;BME280;43953;45.508;-122.806;2023-04-09T00:24:57;100923.03;;;15.36;50.59
50852;BME280;43953;45.508;-122.806;2023-04-09T00:25:29;100918.69;;;15.35;50.47
50852;BME280;43953;45.508;-122.806;2023-04-09T00:26:01;100915.97;;;15.35;50.42
50852;BME280;43953;45.508;-122.806;2023-04-09T00:26:32;100913.25;;;15.35;50.29
50852;BME280;43953;45.508;-122.806;2023-04-09T00:27:04;100916.19;;;15.34;50.06
50852;BME280;43953;45.508;-122.806;2023-04-09T00:27:36;100914.56;;;15.33;49.92
50852;BME280;43953;45.508;-122.806;2023-04-09T00:28:07;100907.44;;;15.32;49.87
50852;BME280;43953;45.508;-122.806;2023-04-09T00:28:39;100910.41;;;15.30;49.87
50852;BME280;43953;45.508;-122.806;2023-04-09T00:29:11;100907.91;;;15.29;49.99
50852;BME280;43953;45.508;-122.806;2023-04-09T00:29:43;100911.47;;;15.29;49.92
50852;BME280;43953;45.508;-122.806;2023-04-09T00:30:14;100907.09;;;15.28;50.14
50852;BME280;43953;45.508;-122.806;2023-04-09T00:30:46;100907.91;;;15.29;50.16
50852;BME280;43953;45.508;-122.806;2023-04-09T00:31:18;100907.69;;;15.30;50.08
50852;BME280;43953;45.508;-122.806;2023-04-09T00:31:50;100906.88;;;15.30;50.30
50852;BME280;43953;45.508;-122.806;2023-04-09T00:32:21;100907.69;;;15.30;50.38
50852;BME280;43953;45.508;-122.806;2023-04-09T00:32:53;100905.59;;;15.32;50.34
50852;BME280;43953;45.508;-122.806;2023-04-09T00:33:25;100911.00;;;15.32;50.31
50852;BME280;43953;45.508;-122.806;2023-04-09T00:33:56;100912.66;;;15.33;50.16
50852;BME280;43953;45.508;-122.806;2023-04-09T00:34:28;100910.75;;;15.34;50.15
50852;BME280;43953;45.508;-122.806;2023-04-09T00:35:00;100911.59;;;15.34;50.07
50852;BME280;43953;45.508;-122.806;2023-04-09T00:35:32;100917.00;;;15.34;49.92
50852;BME280;43953;45.508;-122.806;2023-04-09T00:36:03;100910.75;;;15.34;49.87
50852;BME280;43953;45.508;-122.806;2023-04-09T00:36:35;100907.22;;;15.33;49.64
50852;BME280;43953;45.508;-122.806;2023-04-09T00:37:07;100912.41;;;15.35;49.88
50852;BME280;43953;45.508;-122.806;2023-04-09T00:37:39;100909.94;;;15.33;49.93
50852;BME280;43953;45.508;-122.806;2023-04-09T00:38:10;100903.44;;;15.34;49.83
50852;BME280;43953;45.508;-122.806;2023-04-09T00:38:42;100912.19;;;15.36;49.89
50852;BME280;43953;45.508;-122.806;2023-04-09T00:39:14;100909.47;;;15.36;49.90
50852;BME280;43953;45.508;-122.806;2023-04-09T00:39:46;100904.03;;;15.36;50.01
50852;BME280;43953;45.508;-122.806;2023-04-09T00:40:18;100901.34;;;15.36;49.92
50852;BME280;43953;45.508;-122.806;2023-04-09T00:40:50;100908.66;;;15.36;49.75
50852;BME280;43953;45.508;-122.806;2023-04-09T00:41:21;100908.41;;;15.37;49.69
50852;BME280;43953;45.508;-122.806;2023-04-09T00:41:57;100906.97;;;15.35;49.29
50852;BME280;43953;45.508;-122.806;2023-04-09T00:42:35;100902.63;;;15.34;49.10
50852;BME280;43953;45.508;-122.806;2023-04-09T00:43:07;100902.88;;;15.32;49.10
50852;BME280;43953;45.508;-122.806;2023-04-09T00:43:39;100909.13;;;15.33;49.16
50852;BME280;43953;45.508;-122.806;2023-04-09T00:44:10;100910.16;;;15.32;48.89
50852;BME280;43953;45.508;-122.806;2023-04-09T00:44:42;100903.31;;;15.29;48.80
50852;BME280;43953;45.508;-122.806;2023-04-09T00:45:14;100908.19;;;15.27;48.84
50852;BME280;43953;45.508;-122.806;2023-04-09T00:45:46;100901.31;;;15.24;48.84
50852;BME280;43953;45.508;-122.806;2023-04-09T00:46:18;100903.44;;;15.22;49.17
50852;BME280;43953;45.508;-122.806;2023-04-09T00:46:51;100906.16;;;15.22;49.15
50852;BME280;43953;45.508;-122.806;2023-04-09T00:47:22;100904.50;;;15.21;49.29
50852;BME280;43953;45.508;-122.806;2023-04-09T00:47:54;100902.63;;;15.22;49.27
50852;BME280;43953;45.508;-122.806;2023-04-09T00:48:26;100903.44;;;15.22;49.30
50852;BME280;43953;45.508;-122.806;2023-04-09T00:48:58;100909.47;;;15.24;49.27
50852;BME280;43953;45.508;-122.806;2023-04-09T00:49:30;100904.88;;;15.25;49.36
50852;BME280;43953;45.508;-122.806;2023-04-09T00:50:02;100898.38;;;15.26;49.41
50852;BME280;43953;45.508;-122.806;2023-04-09T00:50:33;100904.63;;;15.27;49.46
50852;BME280;43953;45.508;-122.806;2023-04-09T00:51:07;100898.38;;;15.26;49.62
50852;BME280;43953;45.508;-122.806;2023-04-09T00:51:39;100900.03;;;15.27;49.66
50852;BME280;43953;45.508;-122.806;2023-04-09T00:52:11;100896.50;;;15.27;49.84
50852;BME280;43953;45.508;-122.806;2023-04-09T00:52:43;100900.84;;;15.28;49.93
50852;BME280;43953;45.508;-122.806;2023-04-09T00:53:15;100891.91;;;15.27;49.76
50852;BME280;43953;45.508;-122.806;2023-04-09T00:53:47;100895.44;;;15.28;49.64
50852;BME280;43953;45.508;-122.806;2023-04-09T00:54:19;100900.84;;;15.28;48.98
50852;BME280;43953;45.508;-122.806;2023-04-09T00:54:51;100898.38;;;15.26;48.79
50852;BME280;43953;45.508;-122.806;2023-04-09T00:55:24;100908.41;;;15.25;49.14
50852;BME280;43953;45.508;-122.806;2023-04-09T00:55:56;100900.50;;;15.24;49.25
50852;BME280;43953;45.508;-122.806;2023-04-09T00:56:29;100900.72;;;15.22;49.02
50852;BME280;43953;45.508;-122.806;2023-04-09T00:57:01;100905.34;;;15.22;48.93
50852;BME280;43953;45.508;-122.806;2023-04-09T00:57:33;100901.19;;;15.19;48.71
50852;BME280;43953;45.508;-122.806;2023-04-09T00:58:06;100903.09;;;15.19;48.69
50852;BME280;43953;45.508;-122.806;2023-04-09T00:58:39;100899.78;;;15.17;49.00
50852;BME280;43953;45.508;-122.806;2023-04-09T00:59:12;100901.44;;;15.18;48.79
50852;BME280;43953;45.508;-122.806;2023-04-09T00:59:44;100896.03;;;15.18;48.93
50852;BME280;43953;45.508;-122.806;2023-04-09T01:00:15;100894.34;;;15.17;49.06
50852;BME280;43953;45.508;-122.806;2023-04-09T01:00:47;100899.78;;;15.17;49.12
50852;BME280;43953;45.508;-122.806;2023-04-09T01:01:19;100891.66;;;15.17;48.93
50852;BME280;43953;45.508;-122.806;2023-04-09T01:01:51;100893.53;;;15.16;48.96
50852;BME280;43953;45.508;-122.806;2023-04-09T01:02:23;100891.91;;;15.15;48.87
50852;BME280;43953;45.508;-122.806;2023-04-09T01:02:56;100892.09;;;15.14;48.65
50852;BME280;43953;45.508;-122.806;2023-04-09T01:03:29;100890.22;;;15.14;48.52
50852;BME280;43953;45.508;-122.806;2023-04-09T01:04:01;100888.56;;;15.13;48.79
50852;BME280;43953;45.508;-122.806;2023-04-09T01:04:33;100899.69;;;15.12;48.99
50852;BME280;43953;45.508;-122.806;2023-04-09T01:05:05;100892.59;;;15.11;49.04
50852;BME280;43953;45.508;-122.806;2023-04-09T01:05:49;100896.38;;;15.10;49.05
50852;BME280;43953;45.508;-122.806;2023-04-09T01:07:38;100896.22;;;15.05;49.25
50852;BME280;43953;45.508;-122.806;2023-04-09T01:09:23;100898.38;;;15.02;49.29
50852;BME280;43953;45.508;-122.806;2023-04-09T01:11:19;100892.34;;;15.00;49.41
50852;BME280;43953;45.508;-122.806;2023-04-09T01:13:34;100892.34;;;15.00;48.73
50852;BME280;43953;45.508;-122.806;2023-04-09T01:14:58;100884.69;;;14.97;49.08
50852;BME280;43953;45.508;-122.806;2023-04-09T01:15:37;100891.16;;;14.96;49.00
50852;BME280;43953;45.508;-122.806;2023-04-09T01:16:12;100888.69;;;14.95;49.03
50852;BME280;43953;45.508;-122.806;2023-04-09T01:16:51;100887.88;;;14.94;48.88
50852;BME280;43953;45.508;-122.806;2023-04-09T01:17:45;100891.63;;;14.93;48.96
50852;BME280;43953;45.508;-122.806;2023-04-09T01:18:28;100891.88;;;14.92;49.09
50852;BME280;43953;45.508;-122.806;2023-04-09T01:20:07;100893.50;;;14.93;49.72
50852;BME280;43953;45.508;-122.806;2023-04-09T01:20:50;100883.47;;;14.93;49.74
50852;BME280;43953;45.508;-122.806;2023-04-09T01:21:29;100893.03;;;14.96;49.90
50852;BME280;43953;45.508;-122.806;2023-04-09T01:22:01;100880.31;;;14.96;49.40
50852;BME280;43953;45.508;-122.806;2023-04-09T01:22:50;100888.44;;;14.96;49.08
50852;BME280;43953;45.508;-122.806;2023-04-09T01:27:05;100887.38;;;14.86;48.98
50852;BME280;43953;45.508;-122.806;2023-04-09T01:27:51;100882.16;;;14.84;49.03
50852;BME280;43953;45.508;-122.806;2023-04-09T01:28:36;100897.41;;;14.85;49.34
50852;BME280;43953;45.508;-122.806;2023-04-09T01:29:10;100888.19;;;14.86;49.36
50852;BME280;43953;45.508;-122.806;2023-04-09T01:29:46;100887.38;;;14.86;49.19
50852;BME280;43953;45.508;-122.806;2023-04-09T01:30:18;100886.56;;;14.85;49.30
50852;BME280;43953;45.508;-122.806;2023-04-09T01:30:56;100891.97;;;14.85;49.04
50852;BME280;43953;45.508;-122.806;2023-04-09T01:31:31;100891.13;;;14.85;48.78
50852;BME280;43953;45.508;-122.806;2023-04-09T01:32:06;100891.13;;;14.85;49.05
50852;BME280;43953;45.508;-122.806;2023-04-09T01:32:39;100889.28;;;14.85;49.08
50852;BME280;43953;45.508;-122.806;2023-04-09T01:33:11;100900.69;;;14.87;49.46
50852;BME280;43953;45.508;-122.806;2023-04-09T01:33:44;100897.50;;;14.90;49.66
50852;BME280;43953;45.508;-122.806;2023-04-09T01:34:17;100891.88;;;14.92;49.85
50852;BME280;43953;45.508;-122.806;2023-04-09T01:34:50;100887.25;;;14.92;49.99
50852;BME280;43953;45.508;-122.806;2023-04-09T01:35:25;100886.78;;;14.95;50.34
50852;BME280;43953;45.508;-122.806;2023-04-09T01:35:59;100888.44;;;14.96;50.33
50852;BME280;43953;45.508;-122.806;2023-04-09T01:36:32;100888.44;;;14.96;50.00
50852;BME280;43953;45.508;-122.806;2023-04-09T01:37:07;100886.78;;;14.95;49.71
50852;BME280;43953;45.508;-122.806;2023-04-09T01:37:39;100891.63;;;14.93;49.62
50852;BME280;43953;45.508;-122.806;2023-04-09T01:38:15;100894.56;;;14.92;49.36
50852;BME280;43953;45.508;-122.806;2023-04-09T01:38:49;100890.22;;;14.91;49.56
50852;BME280;43953;45.508;-122.806;2023-04-09T01:39:22;100893.16;;;14.89;49.46
50852;BME280;43953;45.508;-122.806;2023-04-09T01:39:54;100895.25;;;14.87;49.32
50852;BME280;43953;45.508;-122.806;2023-04-09T01:40:26;100891.50;;;14.88;49.59
50852;BME280;43953;45.508;-122.806;2023-04-09T01:40:59;100895.88;;;14.89;49.73
50852;BME280;43953;45.508;-122.806;2023-04-09T01:41:33;100888.56;;;14.90;50.11
50852;BME280;43953;45.508;-122.806;2023-04-09T01:42:06;100891.88;;;14.92;50.26
50852;BME280;43953;45.508;-122.806;2023-04-09T01:42:42;100891.03;;;14.91;50.47
50852;BME280;43953;45.508;-122.806;2023-04-09T01:43:14;100892.09;;;14.90;50.38
50852;BME280;43953;45.508;-122.806;2023-04-09T01:43:50;100892.09;;;14.90;50.42
50852;BME280;43953;45.508;-122.806;2023-04-09T01:44:23;100891.50;;;14.88;50.22
50852;BME280;43953;45.508;-122.806;2023-04-09T01:44:57;100893.16;;;14.89;50.18
50852;BME280;43953;45.508;-122.806;2023-04-09T01:45:29;100896.94;;;14.88;49.97
50852;BME280;43953;45.508;-122.806;2023-04-09T01:46:01;100899.66;;;14.88;50.13
50852;BME280;43953;45.508;-122.806;2023-04-09T01:46:37;100902.34;;;14.88;50.03
50852;BME280;43953;45.508;-122.806;2023-04-09T01:47:10;100899.66;;;14.88;50.04
50852;BME280;43953;45.508;-122.806;2023-04-09T01:47:43;100895.50;;;14.86;49.86
50852;BME280;43953;45.508;-122.806;2023-04-09T01:48:15;100894.69;;;14.85;49.89
50852;BME280;43953;45.508;-122.806;2023-04-09T01:48:48;100892.81;;;14.86;49.90
50852;BME280;43953;45.508;-122.806;2023-04-09T01:49:21;100889.28;;;14.85;49.82
50852;BME280;43953;45.508;-122.806;2023-04-09T01:49:53;100898.22;;;14.86;50.05
50852;BME280;43953;45.508;-122.806;2023-04-09T01:50:25;100890.91;;;14.86;49.86
50852;BME280;43953;45.508;-122.806;2023-04-09T01:50:58;100893.63;;;14.86;49.68
50852;BME280;43953;45.508;-122.806;2023-04-09T01:51:31;100897.16;;;14.87;49.83
50852;BME280;43953;45.508;-122.806;2023-04-09T01:52:03;100897.16;;;14.87;49.69
50852;BME280;43953;45.508;-122.806;2023-04-09T01:52:35;100895.25;;;14.87;49.88
50852;BME280;43953;45.508;-122.806;2023-04-09T01:53:07;100895.25;;;14.87;49.75
50852;BME280;43953;45.508;-122.806;2023-04-09T01:53:39;100902.34;;;14.88;49.52
50852;BME280;43953;45.508;-122.806;2023-04-09T01:54:11;100906.09;;;14.87;49.69
50852;BME280;43953;45.508;-122.806;2023-04-09T01:54:43;100907.16;;;14.86;49.49
50852;BME280;43953;45.508;-122.806;2023-04-09T01:55:15;100905.28;;;14.87;49.66
50852;BME280;43953;45.508;-122.806;2023-04-09T01:55:47;100909.88;;;14.86;49.68
50852;BME280;43953;45.508;-122.806;2023-04-09T01:56:18;100910.69;;;14.87;49.85
50852;BME280;43953;45.508;-122.806;2023-04-09T01:56:51;100911.53;;;14.87;49.84
50852;BME280;43953;45.508;-122.806;2023-04-09T01:57:23;100906.09;;;14.87;49.80
50852;BME280;43953;45.508;-122.806;2023-04-09T01:57:54;100910.47;;;14.88;49.69
50852;BME280;43953;45.508;-122.806;2023-04-09T01:58:26;100911.06;;;14.90;49.84
50852;BME280;43953;45.508;-122.806;2023-04-09T01:58:58;100911.91;;;14.91;49.50
50852;BME280;43953;45.508;-122.806;2023-04-09T01:59:30;100912.72;;;14.91;49.51
50852;BME280;43953;45.508;-122.806;2023-04-09T02:00:03;100910.03;;;14.91;49.67
50852;BME280;43953;45.508;-122.806;2023-04-09T02:00:38;100919.78;;;14.92;49.55
50852;BME280;43953;45.508;-122.806;2023-04-09T02:01:23;100911.91;;;14.91;49.45
50852;BME280;43953;45.508;-122.806;2023-04-09T02:02:09;100919.19;;;14.90;49.06
50852;BME280;43953;45.508;-122.806;2023-04-09T02:02:56;100914.84;;;14.89;49.27
50852;BME280;43953;45.508;-122.806;2023-04-09T02:03:39;100916.13;;;14.87;49.26
50852;BME280;43953;45.508;-122.806;2023-04-09T02:04:49;100914.47;;;14.86;49.22
50852;BME280;43953;45.508;-122.806;2023-04-09T02:05:20;100915.53;;;14.85;49.21
50852;BME280;43953;45.508;-122.806;2023-04-09T02:06:06;100911.16;;;14.84;49.31
50852;BME280;43953;45.508;-122.806;2023-04-09T02:06:47;100905.75;;;14.84;49.18
50852;BME280;43953;45.508;-122.806;2023-04-09T02:07:37;100907.84;;;14.82;49.17
50852;BME280;43953;45.508;-122.806;2023-04-09T02:08:13;100907.03;;;14.81;49.29
50852;BME280;43953;45.508;-122.806;2023-04-09T02:08:46;100903.28;;;14.82;49.47
50852;BME280;43953;45.508;-122.806;2023-04-09T02:09:20;100902.44;;;14.82;49.21
50852;BME280;43953;45.508;-122.806;2023-04-09T02:09:52;100906.00;;;14.82;49.39
50852;BME280;43953;45.508;-122.806;2023-04-09T02:10:29;100911.41;;;14.82;49.19
50852;BME280;43953;45.508;-122.806;2023-04-09T02:11:04;100906.00;;;14.82;49.28
50852;BME280;43953;45.508;-122.806;2023-04-09T02:11:39;100912.47;;;14.81;49.21
50852;BME280;43953;45.508;-122.806;2023-04-09T02:12:15;100903.75;;;14.79;49.27
50852;BME280;43953;45.508;-122.806;2023-04-09T02:12:50;100910.00;;;14.79;49.43
50852;BME280;43953;45.508;-122.806;2023-04-09T02:13:23;100895.84;;;14.77;49.25
50852;BME280;43953;45.508;-122.806;2023-04-09T02:13:57;100900.19;;;14.78;49.33
50852;BME280;43953;45.508;-122.806;2023-04-09T02:14:31;100899.38;;;14.78;49.37
50852;BME280;43953;45.508;-122.806;2023-04-09T02:15:03;100896.44;;;14.79;49.33
50852;BME280;43953;45.508;-122.806;2023-04-09T02:15:38;100896.44;;;14.79;49.12
50852;BME280;43953;45.508;-122.806;2023-04-09T02:16:12;100900.19;;;14.78;49.15
50852;BME280;43953;45.508;-122.806;2023-04-09T02:16:46;100906.69;;;14.77;49.11
50852;BME280;43953;45.508;-122.806;2023-04-09T02:17:18;100896.91;;;14.76;49.12
50852;BME280;43953;45.508;-122.806;2023-04-09T02:17:49;100903.38;;;14.75;48.91
50852;BME280;43953;45.508;-122.806;2023-04-09T02:18:26;100902.78;;;14.73;49.04
50852;BME280;43953;45.508;-122.806;2023-04-09T02:18:58;100904.66;;;14.73;49.18
50852;BME280;43953;45.508;-122.806;2023-04-09T02:19:41;100908.44;;;14.72;49.19
50852;BME280;43953;45.508;-122.806;2023-04-09T02:20:17;100909.50;;;14.71;49.33
50852;BME280;43953;45.508;-122.806;2023-04-09T02:20:49;100900.53;;;14.70;49.22
50852;BME280;43953;45.508;-122.806;2023-04-09T02:21:23;100901.84;;;14.68;49.29
50852;BME280;43953;45.508;-122.806;2023-04-09T02:21:54;100899.13;;;14.68;49.24
50852;BME280;43953;45.508;-122.806;2023-04-09T02:22:26;100906.19;;;14.69;49.22
50852;BME280;43953;45.508;-122.806;2023-04-09T02:22:58;100893.69;;;14.68;49.35
50852;BME280;43953;45.508;-122.806;2023-04-09T02:23:29;100892.88;;;14.67;49.32
50852;BME280;43953;45.508;-122.806;2023-04-09T02:24:03;100909.13;;;14.67;49.32
50852;BME280;43953;45.508;-122.806;2023-04-09T02:24:35;100901.84;;;14.68;49.62
50852;BME280;43953;45.508;-122.806;2023-04-09T02:25:07;100898.31;;;14.67;49.26
50852;BME280;43953;45.508;-122.806;2023-04-09T02:25:39;100899.13;;;14.68;49.51
50852;BME280;43953;45.508;-122.806;2023-04-09T02:26:11;100905.38;;;14.68;49.43
50852;BME280;43953;45.508;-122.806;2023-04-09T02:26:42;100896.41;;;14.68;49.51
50852;BME280;43953;45.508;-122.806;2023-04-09T02:27:14;100902.03;;;14.66;49.49
50852;BME280;43953;45.508;-122.806;2023-04-09T02:27:46;100900.16;;;14.67;49.66
50852;BME280;43953;45.508;-122.806;2023-04-09T02:28:18;100900.16;;;14.67;49.57
50852;BME280;43953;45.508;-122.806;2023-04-09T02:28:50;100894.16;;;14.65;49.51
50852;BME280;43953;45.508;-122.806;2023-04-09T02:29:22;100897.69;;;14.65;49.50
50852;BME280;43953;45.508;-122.806;2023-04-09T02:29:53;100901.00;;;14.67;49.61
50852;BME280;43953;45.508;-122.806;2023-04-09T02:30:25;100900.16;;;14.67;49.70
50852;BME280;43953;45.508;-122.806;2023-04-09T02:30:57;100897.44;;;14.67;49.60
50852;BME280;43953;45.508;-122.806;2023-04-09T02:31:28;100902.66;;;14.68;49.80
50852;BME280;43953;45.508;-122.806;2023-04-09T02:32:00;100895.59;;;14.67;49.86
50852;BME280;43953;45.508;-122.806;2023-04-09T02:32:32;100902.66;;;14.68;49.69
50852;BME280;43953;45.508;-122.806;2023-04-09T02:33:04;100898.88;;;14.69;49.61
50852;BME280;43953;45.508;-122.806;2023-04-09T02:33:36;100898.06;;;14.69;49.40
50852;BME280;43953;45.508;-122.806;2023-04-09T02:34:07;100898.06;;;14.69;49.51
50852;BME280;43953;45.508;-122.806;2023-04-09T02:34:39;100899.69;;;14.70;49.35
50852;BME280;43953;45.508;-122.806;2023-04-09T02:35:11;100895.34;;;14.69;49.56
50852;BME280;43953;45.508;-122.806;2023-04-09T02:35:43;100898.06;;;14.69;49.52
50852;BME280;43953;45.508;-122.806;2023-04-09T02:36:14;100901.84;;;14.68;49.45
50852;BME280;43953;45.508;-122.806;2023-04-09T02:36:46;100892.63;;;14.69;49.66
50852;BME280;43953;45.508;-122.806;2023-04-09T02:37:17;100899.13;;;14.68;49.46
50852;BME280;43953;45.508;-122.806;2023-04-09T02:37:49;100903.47;;;14.69;49.40
50852;BME280;43953;45.508;-122.806;2023-04-09T02:38:21;100891.00;;;14.68;49.27
50852;BME280;43953;45.508;-122.806;2023-04-09T02:38:53;100891.22;;;14.66;49.38
50852;BME280;43953;45.508;-122.806;2023-04-09T02:39:24;100893.34;;;14.64;49.70
50852;BME280;43953;45.508;-122.806;2023-04-09T02:39:57;100895.19;;;14.64;49.80
50852;BME280;43953;45.508;-122.806;2023-04-09T02:40:29;100899.81;;;14.63;49.89
50852;BME280;43953;45.508;-122.806;2023-04-09T02:41:00;100897.91;;;14.64;49.79
50852;BME280;43953;45.508;-122.806;2023-04-09T02:41:32;100895.19;;;14.64;49.81
50852;BME280;43953;45.508;-122.806;2023-04-09T02:42:04;100902.28;;;14.65;49.82
50852;BME280;43953;45.508;-122.806;2023-04-09T02:42:37;100896.88;;;14.65;49.78
50852;BME280;43953;45.508;-122.806;2023-04-09T02:43:09;100892.75;;;14.62;49.75
50852;BME280;43953;45.508;-122.806;2023-04-09T02:43:41;100898.75;;;14.64;49.75
50852;BME280;43953;45.508;-122.806;2023-04-09T02:44:13;100889.78;;;14.64;49.62
50852;BME280;43953;45.508;-122.806;2023-04-09T02:44:44;100896.28;;;14.63;49.90
50852;BME280;43953;45.508;-122.806;2023-04-09T02:45:16;100898.16;;;14.62;49.92
50852;BME280;43953;45.508;-122.806;2023-04-09T02:45:48;100892.75;;;14.62;49.90
50852;BME280;43953;45.508;-122.806;2023-04-09T02:46:19;100889.22;;;14.62;49.81
50852;BME280;43953;45.508;-122.806;2023-04-09T02:46:51;100893.56;;;14.63;49.66
50852;BME280;43953;45.508;-122.806;2023-04-09T02:47:23;100895.19;;;14.64;49.72
50852;BME280;43953;45.508;-122.806;2023-04-09T02:47:56;100894.38;;;14.63;49.80
50852;BME280;43953;45.508;-122.806;2023-04-09T02:48:28;100901.47;;;14.64;49.86
50852;BME280;43953;45.508;-122.806;2023-04-09T02:49:00;100900.63;;;14.64;49.48
50852;BME280;43953;45.508;-122.806;2023-04-09T02:49:31;100896.06;;;14.64;49.64
50852;BME280;43953;45.508;-122.806;2023-04-09T02:50:04;100894.38;;;14.63;49.58
50852;BME280;43953;45.508;-122.806;2023-04-09T02:50:36;100899.81;;;14.63;49.66
50852;BME280;43953;45.508;-122.806;2023-04-09T02:51:08;100898.16;;;14.62;49.47
50852;BME280;43953;45.508;-122.806;2023-04-09T02:51:40;100891.91;;;14.62;49.48
50852;BME280;43953;45.508;-122.806;2023-04-09T02:52:11;100893.81;;;14.61;49.65
50852;BME280;43953;45.508;-122.806;2023-04-09T02:52:45;100896.53;;;14.61;49.66
50852;BME280;43953;45.508;-122.806;2023-04-09T02:53:17;100901.09;;;14.61;49.65
50852;BME280;43953;45.508;-122.806;2023-04-09T02:53:49;100896.53;;;14.61;49.59
50852;BME280;43953;45.508;-122.806;2023-04-09T02:54:20;100899.44;;;14.60;49.67
50852;BME280;43953;45.508;-122.806;2023-04-09T02:54:52;100898.38;;;14.61;49.49
50852;BME280;43953;45.508;-122.806;2023-04-09T02:55:24;100900.03;;;14.62;49.56
50852;BME280;43953;45.508;-122.806;2023-04-09T02:55:56;100901.09;;;14.61;49.60
50852;BME280;43953;45.508;-122.806;2023-04-09T02:56:27;100894.03;;;14.60;49.71
50852;BME280;43953;45.508;-122.806;2023-04-09T02:56:59;100888.59;;;14.60;49.56
50852;BME280;43953;45.508;-122.806;2023-04-09T02:57:31;100894.03;;;14.60;49.46
50852;BME280;43953;45.508;-122.806;2023-04-09T02:58:03;100894.03;;;14.60;49.99
50852;BME280;43953;45.508;-122.806;2023-04-09T02:58:35;100890.25;;;14.61;49.98